ADDS METAR Data INFO
IDs: Format: Raw Decoded Include TAF

Data at: 2114 UTC 22 Oct 2017

KMQB 222055Z AUTO 35003KT 10SM RA BKN016 OVC065 12/10 A3009 RMK AO2 T01160101
KMQB 222035Z AUTO 36004KT 10SM -RA SCT016 OVC055 12/10 A3009 RMK AO2 T01160098
KMQB 222015Z AUTO 36006KT 10SM SCT022 OVC055 12/10 A3009 RMK AO2 T01170100
KMQB 221955Z AUTO 36007KT 10SM SCT014 BKN022 OVC055 12/10 A3008 RMK AO2 T01160100
KMQB 221935Z AUTO 35007KT 10SM SCT012 BKN055 OVC065 12/10 A3008 RMK AO2 T01160100
KMQB 221915Z AUTO 34007KT 10SM BKN049 OVC055 12/10 A3007 RMK AO2 T01150098
KMQB 221855Z AUTO 35009KT 10SM -RA SCT041 OVC047 12/10 A3006 RMK AO2 T01150095
KMQB 221835Z AUTO 34009KT 10SM OVC041 12/09 A3006 RMK AO2 T01170091
KMQB 221815Z AUTO 36014G20KT 10SM OVC041 12/09 A3005 RMK AO2 T01170093
KMQB 221755Z AUTO 36013G16KT 10SM SCT016 BKN022 OVC037 12/10 A3004 RMK AO2 60019 T01170097 10127 20116
KMQB 221735Z AUTO 33017G21KT 10SM SCT016 BKN021 OVC033 12/10 A3006 RMK AO2 T01170099
KMQB 221715Z AUTO 33013G19KT 10SM -DZ OVC031 12/10 A3005 RMK AO2 T01170100
KMQB 221655Z AUTO 34014G20KT 10SM -RA SCT013 SCT018 OVC027 12/11 A3003 RMK AO2 T01180105
KMQB 221635Z AUTO 32012G17KT 7SM BKN012 OVC018 12/11 A3003 RMK AO2 T01200108
KMQB 221615Z AUTO 33014G22KT 10SM -RA BKN012 BKN018 OVC024 12/11 A3003 RMK AO2 T01180106
KMQB 221555Z AUTO 32015G18KT 10SM SCT010 OVC024 12/11 A3003 RMK AO2 T01200110
KMQB 221535Z AUTO 33012G19KT 10SM SCT010 BKN024 OVC044 12/11 A3001 RMK AO2 T01200110
KMQB 221515Z AUTO 34015G21KT 10SM SCT010 BKN024 OVC044 12/11 A2998 RMK AO2 T01210114
KMQB 221455Z AUTO 33016G20KT 10SM -RA SCT009 BKN020 OVC044 12/12 A2998 RMK AO2 P0003 60019 T01230117
KMQB 221435Z AUTO 33015G20KT 7SM -RA BKN009 BKN013 OVC020 12/12 A3000 RMK AO2 P0002 T01210116
KMQB 221415Z AUTO 34009KT 5SM -RA BKN007 OVC011 13/12 A3000 RMK AO2 P0001 T01250122
KMQB 221355Z AUTO 33006KT 10SM -RA OVC007 13/12 A2999 RMK AO2 P0004 T01260124
KMQB 221335Z AUTO 33009KT 7SM -RA OVC007 13/12 A2997 RMK AO2 P0003 T01260123
KMQB 221315Z AUTO 35006KT 10SM -RA OVC007 13/12 A2996 RMK AO2 P0001 T01260123
KMQB 221255Z AUTO 35008KT 3SM +RA BKN007 BKN022 OVC060 13/12 A2994 RMK AO2 P0012 T01260122
KMQB 221235Z AUTO 34007KT 5SM RA OVC007 13/12 A2996 RMK AO2 P0003 T01260122
KMQB 221215Z AUTO 34008KT 10SM -DZ SCT007 OVC042 13/12 A2995 RMK AO2 LTG DSNT SW AND W T01260122
KMQB 221155Z AUTO 33013KT 10SM RA SCT007 SCT014 OVC042 13/12 A2993 RMK AO2 LTG DSNT SW P0004 60047 70047 T01260122 10210 20126
KMQB 221135Z AUTO 30014G17KT 5SM -RA OVC005 13/13 A2995 RMK AO2 P0003 T01280125
KMQB 221115Z AUTO 30015G19KT 7SM -RA OVC005 14/13 A2995 RMK AO2 LTG DSNT W P0001 T01380133
KMQB 221055Z AUTO 33014KT 10SM -RA OVC005 15/14 A2992 RMK AO2 LTG DSNT NE P0003 T01470143
KMQB 221035Z AUTO 31006KT 10SM RA BKN007 BKN024 OVC029 16/16 A2992 RMK AO2 LTG DSNT SW P0002 T01580155
KMQB 221015Z AUTO 32008KT 10SM RA BKN007 BKN018 OVC029 16/15 A2990 RMK AO2 T01580153
KMQB 220955Z AUTO 31007KT 7SM -RA BKN007 OVC018 16/16 A2990 RMK AO2 P0027 T01600155
KMQB 220935Z AUTO 31010KT 4SM +TSRA SCT007 OVC016 16/16 A2989 RMK AO2 LTG DSNT NE AND SW P0024 T01610155
KMQB 220915Z AUTO 32011KT 3SM TSRA OVC016 17/16 A2988 RMK AO2 LTG DSNT N SE AND NW P0010 T01650156
KMQB 220855Z AUTO 32011KT 5SM -TSRA BKN016 BKN026 OVC046 18/16 A2987 RMK AO2 LTG DSNT SW AND W P0009 60013 T01820163
KMQB 220835Z AUTO 13006KT 10SM -RA SCT014 BKN042 OVC080 18/17 A2987 RMK AO2 LTG DSNT NE AND W P0001 T01830170
KMQB 220815Z AUTO 16008G15KT 10SM SCT055 BKN080 OVC100 19/17 A2986 RMK AO2 P0001 T01850167
KMQB 220755Z AUTO 16012G17KT 5SM +RA SCT049 BKN075 OVC110 19/16 A2986 RMK AO2 LTG DSNT NW P0004 T01870164
KMQB 220735Z AUTO 17014KT 10SM RA SCT047 SCT050 BKN110 20/16 A2988 RMK AO2 T01950158
KMQB 220715Z AUTO 16014G20KT 10SM SCT047 SCT055 BKN070 20/16 A2987 RMK AO2 LTG DSNT S T02000155
KMQB 220655Z AUTO 16013KT 10SM SCT039 SCT049 BKN085 20/15 A2988 RMK AO2 T02030152
KMQB 220635Z AUTO 16012G17KT 10SM SCT041 BKN050 BKN090 20/15 A2989 RMK AO2 T02030150
KMQB 220615Z AUTO 16014G18KT 10SM BKN041 OVC050 21/15 A2990 RMK AO2 LTG DSNT W T02050150
KMQB 220555Z AUTO 17015G23KT 10SM BKN041 OVC085 21/15 A2992 RMK AO2 LTG DSNT S AND SW T02100150 10227 20203 402640147
KMQB 220535Z AUTO 16016G22KT 10SM SCT043 SCT070 BKN085 21/15 A2991 RMK AO2 LTG DSNT SW T02090150
KMQB 220515Z AUTO 16016G21KT 10SM CLR 21/15 A2991 RMK AO2 LTG DSNT SW T02060148
KMQB 220455Z AUTO 16015G20KT 10SM CLR 21/15 A2992 RMK AO2 LTG DSNT SW T02050147
KMQB 220435Z AUTO 16014G20KT 10SM SCT040 20/15 A2992 RMK AO2 LTG DSNT SW T02030146
KMQB 220415Z AUTO 16014G23KT 10SM CLR 21/15 A2994 RMK AO2 LTG DSNT SW AND W T02060146
KMQB 220355Z AUTO 17016G20KT 10SM SCT070 SCT085 21/15 A2995 RMK AO2 LTG DSNT SW AND W T02050147
KMQB 220335Z AUTO 16014G19KT 10SM CLR 20/15 A2995 RMK AO2 LTG DSNT SW T02040149
KMQB 220315Z AUTO 16012KT 10SM SCT048 20/15 A2995 RMK AO2 T02030151
KMQB 220255Z AUTO 16013KT 10SM SCT048 SCT075 21/15 A2995 RMK AO2 T02050154
KMQB 220235Z AUTO 17012KT 10SM OVC075 21/16 A2994 RMK AO2 T02130156
KMQB 220215Z AUTO 16014G18KT 10SM OVC075 22/16 A2993 RMK AO2 T02170157
KMQB 220155Z AUTO 16013KT 10SM OVC075 22/16 A2993 RMK AO2 T02190157
KMQB 220135Z AUTO 16012KT 10SM OVC075 22/16 A2994 RMK AO2 T02180156
KMQB 220115Z AUTO 16011KT 10SM OVC075 22/16 A2994 RMK AO2 T02200158
KMQB 220055Z AUTO 15010KT 10SM SCT050 SCT065 OVC070 22/16 A2995 RMK AO2 LTG DSNT NW T02200160
KMQB 220035Z AUTO 16009KT 10SM SCT055 OVC065 22/16 A2995 RMK AO2 LTG DSNT NW T02230163
KMQB 220015Z AUTO 16009KT 10SM OVC065 23/16 A2996 RMK AO2 LTG DSNT W T02250164
KMQB 212355Z AUTO 16011KT 10SM OVC065 23/17 A2996 RMK AO2 LTG DSNT NW T02270165 10264 20227
KMQB 212335Z AUTO 17013G18KT 10SM SCT047 OVC065 23/17 A2995 RMK AO2 LTG DSNT W T02290166
KMQB 212315Z AUTO 16012G16KT 10SM OVC065 23/17 A2995 RMK AO2 T02300167
KMQB 212255Z AUTO 16014KT 10SM OVC055 23/17 A2995 RMK AO2 T02320168
KMQB 212235Z AUTO 17011G17KT 10SM OVC055 23/17 A2995 RMK AO2 T02340168
KMQB 212215Z AUTO 17012G19KT 10SM BKN055 24/17 A2994 RMK AO2 T02350166
KMQB 212155Z AUTO 17013G21KT 10SM CLR 24/17 A2994 RMK AO2 T02380165
KMQB 212135Z AUTO 18015G21KT 10SM SCT039 25/16 A2994 RMK AO2 T02460162
KMQB 212115Z AUTO 18016G26KT 10SM CLR 26/16 A2993 RMK AO2 T02550161
KMQB 212055Z AUTO 17016G22KT 10SM CLR 26/16 A2992 RMK AO2 T02570158
KMQB 212035Z AUTO 16017G22KT 10SM CLR 26/16 A2992 RMK AO2 T02590156
KMQB 212015Z AUTO 17017G24KT 10SM CLR 26/16 A2992 RMK AO2 T02610157
KMQB 211955Z AUTO 17019G25KT 10SM SCT044 26/16 A2992 RMK AO2 T02630156
KMQB 211935Z AUTO 18014G24KT 10SM SCT044 26/16 A2992 RMK AO2 T02620155
KMQB 211915Z AUTO 19016G24KT 10SM SCT046 26/15 A2993 RMK AO2 T02620154
KMQB 211855Z AUTO 17017G20KT 10SM SCT044 26/15 A2994 RMK AO2 T02600153
KMQB 211835Z AUTO 18016G24KT 10SM CLR 26/16 A2995 RMK AO2 T02550155
KMQB 211815Z AUTO 18017G25KT 10SM CLR 25/15 A2995 RMK AO2 T02500153
KMQB 211755Z AUTO 17015KT 10SM CLR 25/15 A2996 RMK AO2 T02470151 10247 20147
KMQB 211735Z AUTO 16015G22KT 10SM CLR 24/15 A2997 RMK AO2 T02410149
KMQB 211715Z AUTO 18015G23KT 10SM CLR 24/15 A2999 RMK AO2 T02400149
KMQB 211655Z AUTO 19013G18KT 10SM SCT070 23/15 A2999 RMK AO2 T02330147
KMQB 211635Z AUTO 18015G24KT 10SM SCT070 SCT080 SCT110 22/14 A3000 RMK AO2 T02220143
KMQB 211615Z AUTO 19011G20KT 10SM SCT080 BKN110 22/14 A3001 RMK AO2 LTG DSNT N T02160140
KMQB 211555Z AUTO 19015G22KT 10SM SCT055 SCT080 SCT100 22/14 A3001 RMK AO2 T02160141
KMQB 211535Z AUTO 19012G21KT 10SM BKN055 BKN100 21/14 A3000 RMK AO2 T02080137
KMQB 211515Z AUTO 18013G18KT 10SM OVC055 20/13 A3001 RMK AO2 T01960132
KMQB 211455Z AUTO 18014G18KT 10SM OVC055 19/13 A3001 RMK AO2 T01920131
KMQB 211435Z AUTO 18011G16KT 10SM BKN055 18/13 A3002 RMK AO2 T01820126
KMQB 211415Z AUTO 17009G17KT 10SM SCT049 SCT120 18/13 A3002 RMK AO2 T01790125
KMQB 211355Z AUTO 17009KT 10SM SCT049 SCT120 17/12 A3002 RMK AO2 T01680122
KMQB 211335Z AUTO 16007KT 10SM CLR 16/12 A3001 RMK AO2 T01560119
KMQB 211315Z AUTO 16007KT 10SM CLR 15/11 A3001 RMK AO2 LTG DSNT N T01470114
KMQB 211255Z AUTO 16008KT 10SM CLR 15/11 A3001 RMK AO2 T01500113
KMQB 211235Z AUTO 17008KT 10SM CLR 15/11 A3000 RMK AO2 T01520112
KMQB 211215Z AUTO 16010KT 10SM SCT100 16/11 A3000 RMK AO2 T01560111
KMQB 211155Z AUTO 17009KT 10SM BKN100 16/11 A3000 RMK AO2 T01600111 10177 20152
KMQB 211135Z AUTO 17010KT 10SM BKN100 16/11 A3000 RMK AO2 LTG DSNT NE T01560110
KMQB 211115Z AUTO 16009KT 10SM SCT100 16/11 A3000 RMK AO2 LTG DSNT NE T01560110
KMQB 211055Z AUTO 16010KT 10SM CLR 16/11 A3000 RMK AO2 T01560109
KMQB 211035Z AUTO 16009KT 10SM CLR 16/11 A3000 RMK AO2 LTG DSNT NE T01560108
KMQB 211015Z AUTO 16010KT 10SM SCT110 16/11 A3000 RMK AO2 T01580108
KMQB 210955Z AUTO 16012KT 10SM BKN110 16/11 A3000 RMK AO2 T01610109
KMQB 210935Z AUTO 16010KT 10SM OVC100 16/11 A3000 RMK AO2 LTG DSNT NE T01620109
KMQB 210915Z AUTO 16009KT 10SM OVC090 16/11 A3000 RMK AO2 T01610110